»·PEaware :: SWA1364 KLAS-KSAN

SWA1364 :: KLAS-KSAN

FLIGHT INFORMATION

Flight Status: Arrived
Operator:
Southwest Airlines
More flights by this operator :: More flights under this callsign
Pilot: Anonymous 34646 (34646)
Aircraft: BOEING 737-700
(B737)
More flights by this aircraft type
Origin: KLAS Harry Reid Intl
United States
Destination: KSAN San Diego Intl-Lindbergh
United States
More flights between these airports :: More routes between these airports
Route: RADYR1 LVELL LUCKI1
File this flight plan on PilotEdge
Remarks: RMK / SIMBRIEF
Altitude:
(Current/Filed)
28,000ft
Speed:
(Current/Filed)
463kts
Departed: 26-May-21 09:12 PM
Arrived: 26-May-21 09:57 PM
Distance/Time
Traveled:
225nm/0:45
Distance/Time
To Go:
Arrived

Flight Plot

Page will automatically refresh every two minutes.

Flight plan parsing failed; only flown route is shown


Map Options




Map Legend


Flown Route
Filed Route
Departure Airport
Arrival Airport
Navaid (VOR, NDB)
Fix

Horizontal Profiles

Position Reports

Time Latitude Longitude Heading Altitude Ground
Speed
26-May-21 20:48 36.079845 -115.147154 55 2189ft 0kts
26-May-21 20:49 36.079845 -115.147154 55 2189ft 0kts
26-May-21 20:50 36.079845 -115.147154 55 2189ft 0kts
26-May-21 20:51 36.079845 -115.147154 55 2189ft 0kts
26-May-21 20:52 36.079845 -115.147154 55 2189ft 0kts
26-May-21 20:53 36.079845 -115.147154 55 2189ft 0kts
26-May-21 20:54 36.079845 -115.147154 55 2189ft 0kts
26-May-21 20:55 36.079845 -115.147154 55 2189ft 0kts
26-May-21 20:56 36.079845 -115.147154 55 2189ft 0kts
26-May-21 20:57 36.079845 -115.147154 55 2189ft 0kts
26-May-21 20:58 36.079638 -115.147519 55 2189ft 2kts
26-May-21 20:59 36.079486 -115.147787 54 2189ft 0kts
26-May-21 21:00 36.079486 -115.147787 54 2189ft 0kts
26-May-21 21:01 36.079486 -115.147787 54 2189ft 0kts
26-May-21 21:02 36.079486 -115.147787 54 2189ft 0kts
26-May-21 21:03 36.079486 -115.147787 54 2189ft 0kts
26-May-21 21:04 36.078478 -115.146621 96 2189ft 10kts
26-May-21 21:05 36.078258 -115.141760 90 2189ft 12kts
26-May-21 21:06 36.078275 -115.135679 89 2189ft 22kts
26-May-21 21:07 36.078286 -115.128613 90 2189ft 18kts
26-May-21 21:08 36.078014 -115.122232 135 2189ft 10kts
26-May-21 21:09 36.077613 -115.121685 128 2189ft 0kts
26-May-21 21:10 36.076410 -115.121504 264 2189ft 7kts
26-May-21 21:11 36.076396 -115.147206 270 2265ft 164kts
26-May-21 21:12 36.075333 -115.209128 260 4219ft 215kts
26-May-21 21:13 36.047670 -115.272926 197 6996ft 247kts
26-May-21 21:14 35.974083 -115.299458 193 8411ft 292kts
26-May-21 21:15 35.892873 -115.318745 192 11628ft 322kts
26-May-21 21:16 35.795799 -115.342277 192 13912ft 373kts
26-May-21 21:17 35.691741 -115.367682 191 17021ft 390kts
26-May-21 21:18 35.582238 -115.386659 180 18988ft 404kts
26-May-21 21:19 35.469036 -115.378160 177 20286ft 411kts
26-May-21 21:20 35.352878 -115.369680 178 22756ft 425kts
26-May-21 21:21 35.233098 -115.361218 179 24921ft 437kts
26-May-21 21:22 35.110559 -115.352601 179 27074ft 440kts
26-May-21 21:23 34.988816 -115.344098 180 27950ft 437kts
26-May-21 21:24 34.868180 -115.335738 180 27958ft 433kts
26-May-21 21:25 34.749685 -115.345150 199 27968ft 424kts
26-May-21 21:26 34.638792 -115.392937 202 27988ft 421kts
26-May-21 21:27 34.528649 -115.441396 202 28003ft 421kts
26-May-21 21:28 34.418726 -115.489209 202 28017ft 420kts
26-May-21 21:29 34.310085 -115.541352 211 28028ft 417kts
26-May-21 21:30 34.210953 -115.612983 209 28012ft 417kts
26-May-21 21:31 34.103138 -115.665678 204 28007ft 418kts
26-May-21 21:32 33.994728 -115.716620 204 27996ft 417kts
26-May-21 21:33 33.886853 -115.767942 205 27979ft 416kts
26-May-21 21:34 33.779597 -115.820612 205 27959ft 416kts
26-May-21 21:35 33.673933 -115.870386 204 27861ft 391kts
26-May-21 21:36 33.574281 -115.916863 204 26862ft 381kts
26-May-21 21:37 33.491120 -115.987123 233 25170ft 366kts
26-May-21 21:38 33.432673 -116.086765 236 23340ft 366kts
26-May-21 21:39 33.374549 -116.186500 236 21535ft 362kts
26-May-21 21:40 33.304982 -116.268673 211 19771ft 354kts
26-May-21 21:41 33.217514 -116.320611 208 17932ft 349kts
26-May-21 21:42 33.131322 -116.370869 207 16166ft 340kts
26-May-21 21:43 33.047123 -116.419945 207 14513ft 334kts
26-May-21 21:44 32.970310 -116.478795 222 12925ft 326kts
26-May-21 21:45 32.902099 -116.548616 220 11343ft 315kts
26-May-21 21:46 32.839263 -116.611879 221 9885ft 285kts
26-May-21 21:47 32.780505 -116.671866 227 8518ft 271kts
26-May-21 21:48 32.741386 -116.746423 242 7198ft 262kts
26-May-21 21:49 32.706983 -116.820112 245 6024ft 247kts
26-May-21 21:50 32.683712 -116.895139 251 4825ft 229kts
26-May-21 21:51 32.676420 -116.966433 287 3769ft 217kts
26-May-21 21:52 32.694746 -117.029375 284 2837ft 189kts
26-May-21 21:53 32.707673 -117.083021 286 1996ft 143kts
26-May-21 21:54 32.718249 -117.126371 286 1143ft 137kts
26-May-21 21:55 32.728730 -117.169639 286 290ft 135kts
26-May-21 21:56 32.735236 -117.198017 253 23ft 11kts
26-May-21 21:57 32.734770 -117.198596 178 23ft 0kts
26-May-21 21:58 32.733854 -117.198573 178 23ft 0kts
26-May-21 21:59 32.733765 -117.198567 176 23ft 0kts
26-May-21 22:00 32.733765 -117.198567 176 23ft 0kts

Navigation Log

Ident Type
Flight plan parsing failed, navigation log unavailable